Time;durP1;ratioP1;P1;durP2;ratioP2;P2;SDS_P1;SDS_P2;PMS_P1;PMS_P2;Temp;Humidity;BMP_temperature;BMP_pressure;BME280_temperature;BME280_humidity;BME280_pressure;Samples;Min_cycle;Max_cycle;Signal;HPM_P1;HPM_P2
2022/11/25 00:01:28;;;;;;;15.00;11.10;;;;;;;;;;108280;1270;22593;-31
2022/11/25 00:04:01;;;;;;;15.20;10.70;;;;;;;;;;108301;1268;22583;-31
2022/11/25 00:06:35;;;;;;;15.70;10.80;;;;;;;;;;108268;1270;22510;-31
2022/11/25 00:09:11;;;;;;;14.80;11.20;;;;;;;;;;108272;1270;22648;-31
2022/11/25 00:11:49;;;;;;;15.70;10.80;;;;;;;;;;108361;1269;25274;-31
2022/11/25 00:14:21;;;;;;;14.30;10.60;;;;;;;;;;108383;1270;22565;-31
2022/11/25 00:16:54;;;;;;;16.60;10.80;;;;;;;;;;108382;1269;22528;-31
2022/11/25 00:19:27;;;;;;;15.10;10.90;;;;;;;;;;108376;1271;25271;-31
2022/11/25 00:21:59;;;;;;;14.90;10.80;;;;;;;;;;108325;1269;22619;-31
2022/11/25 00:24:31;;;;;;;14.80;10.90;;;;;;;;;;108344;1262;22549;-31
2022/11/25 00:27:04;;;;;;;15.40;11.40;;;;;;;;;;108295;1270;22547;-31
2022/11/25 00:29:37;;;;;;;15.90;11.40;;;;;;;;;;108319;1274;24318;-31
2022/11/25 00:32:09;;;;;;;15.90;11.50;;;;;;;;;;108349;1269;22575;-31
2022/11/25 00:34:41;;;;;;;16.10;11.00;;;;;;;;;;108367;1269;22593;-31
2022/11/25 00:37:15;;;;;;;14.60;11.10;;;;;;;;;;108430;1270;22628;-31
2022/11/25 00:39:50;;;;;;;16.00;10.90;;;;;;;;;;108409;1269;22553;-31
2022/11/25 00:45:18;;;;;;;15.40;11.10;;;;;;;;;;108283;1276;22629;-31
2022/11/25 00:47:50;;;;;;;16.90;11.80;;;;;;;;;;108293;1267;22609;-31
2022/11/25 00:50:23;;;;;;;15.10;10.90;;;;;;;;;;108270;1276;22592;-31
2022/11/25 00:52:56;;;;;;;15.30;11.20;;;;;;;;;;108327;1269;22515;-32
2022/11/25 00:56:11;;;;;;;16.40;11.70;;;;;;;;;;108389;1268;22597;-32
2022/11/25 00:58:22;;;;;;;17.10;11.80;;;;;;;;;;108371;1266;22563;-32
2022/11/25 01:00:55;;;;;;;17.00;11.90;;;;;;;;;;108326;1269;23842;-32
2022/11/25 01:03:27;;;;;;;16.10;11.70;;;;;;;;;;108281;1275;22607;-32
2022/11/25 01:06:04;;;;;;;16.90;12.00;;;;;;;;;;108296;1269;22521;-32
2022/11/25 01:08:39;;;;;;;16.30;11.30;;;;;;;;;;108319;1270;22561;-32
2022/11/25 01:11:16;;;;;;;16.60;11.80;;;;;;;;;;108281;1269;22533;-32
2022/11/25 01:13:55;;;;;;;17.40;12.50;;;;;;;;;;108409;1266;23005;-32
2022/11/25 01:16:31;;;;;;;15.90;11.20;;;;;;;;;;108414;1270;22567;-32
2022/11/25 01:19:07;;;;;;;16.90;12.10;;;;;;;;;;108416;1268;22556;-32
2022/11/25 01:21:40;;;;;;;15.70;11.40;;;;;;;;;;108380;1268;22574;-33
2022/11/25 01:24:14;;;;;;;17.10;12.20;;;;;;;;;;108303;1274;22578;-32
2022/11/25 01:26:48;;;;;;;16.70;11.80;;;;;;;;;;108280;1270;22611;-33
2022/11/25 01:29:21;;;;;;;16.80;12.00;;;;;;;;;;108312;1273;22781;-32
2022/11/25 01:31:56;;;;;;;15.80;11.00;;;;;;;;;;108327;1263;22544;-32
2022/11/25 01:34:33;;;;;;;17.30;12.40;;;;;;;;;;108459;1269;22503;-32
2022/11/25 01:37:08;;;;;;;16.60;11.10;;;;;;;;;;108459;1269;22605;-32
2022/11/25 01:39:41;;;;;;;15.30;11.30;;;;;;;;;;108372;1271;22598;-32
2022/11/25 01:42:13;;;;;;;16.30;11.30;;;;;;;;;;108301;1271;24052;-32
2022/11/25 01:45:29;;;;;;;17.30;11.90;;;;;;;;;;108304;1275;24001;-32
2022/11/25 01:48:10;;;;;;;16.50;11.20;;;;;;;;;;108273;1271;23583;-33
2022/11/25 01:50:43;;;;;;;14.60;10.90;;;;;;;;;;108301;1276;24233;-32
2022/11/25 01:53:19;;;;;;;16.40;12.10;;;;;;;;;;108372;1271;22549;-32
2022/11/25 01:55:56;;;;;;;16.40;11.30;;;;;;;;;;108439;1263;22514;-32
2022/11/25 01:58:33;;;;;;;15.90;10.80;;;;;;;;;;108388;1269;24043;-32
2022/11/25 02:01:05;;;;;;;16.50;11.40;;;;;;;;;;108378;1274;22722;-32
2022/11/25 02:03:43;;;;;;;16.40;11.30;;;;;;;;;;108322;1269;22548;-32
2022/11/25 02:06:20;;;;;;;16.40;11.40;;;;;;;;;;108321;1268;22550;-32
2022/11/25 02:08:56;;;;;;;17.50;11.60;;;;;;;;;;108300;1268;22546;-32
2022/11/25 02:11:30;;;;;;;17.50;11.60;;;;;;;;;;108333;1271;23487;-32
2022/11/25 02:14:04;;;;;;;16.20;12.10;;;;;;;;;;108384;1268;22551;-32
2022/11/25 02:16:36;;;;;;;17.10;11.30;;;;;;;;;;108391;1270;22565;-32
2022/11/25 02:19:16;;;;;;;17.20;11.60;;;;;;;;;;108470;1269;23707;-32
2022/11/25 02:21:55;;;;;;;15.70;11.00;;;;;;;;;;108383;1268;22640;-32
2022/11/25 02:24:33;;;;;;;19.10;11.90;;;;;;;;;;108342;1268;22549;-32
2022/11/25 02:27:07;;;;;;;17.50;12.20;;;;;;;;;;108335;1270;22510;-32
2022/11/25 02:29:38;;;;;;;;;;;;;;;;;;108347;1264;22567;-32
2022/11/25 02:32:11;;;;;;;17.70;11.80;;;;;;;;;;108318;1264;22566;-32
2022/11/25 02:34:50;;;;;;;17.90;11.90;;;;;;;;;;108405;1271;22548;-32
2022/11/25 02:37:24;;;;;;;18.60;12.30;;;;;;;;;;108478;1269;22564;-32
2022/11/25 02:39:58;;;;;;;18.60;12.10;;;;;;;;;;108440;1265;22663;-32
2022/11/25 02:42:32;;;;;;;17.80;11.70;;;;;;;;;;108467;1269;25283;-32
2022/11/25 02:45:07;;;;;;;17.60;12.10;;;;;;;;;;108329;1266;22529;-32
2022/11/25 02:47:42;;;;;;;17.80;11.70;;;;;;;;;;108362;1276;22516;-32
2022/11/25 02:50:16;;;;;;;18.90;11.60;;;;;;;;;;108297;1269;22517;-32
2022/11/25 02:52:48;;;;;;;16.80;11.90;;;;;;;;;;108313;1276;22550;-32
2022/11/25 02:55:20;;;;;;;17.60;11.50;;;;;;;;;;108360;1269;22641;-32
2022/11/25 02:57:55;;;;;;;18.60;11.70;;;;;;;;;;108334;1270;22635;-32
2022/11/25 03:00:29;;;;;;;18.70;12.30;;;;;;;;;;108376;1269;22499;-32
2022/11/25 03:03:07;;;;;;;16.40;11.10;;;;;;;;;;108420;1262;25968;-32
2022/11/25 03:05:43;;;;;;;17.30;11.80;;;;;;;;;;108268;1270;22542;-32
2022/11/25 03:08:18;;;;;;;17.90;12.30;;;;;;;;;;108319;1266;22711;-32
2022/11/25 03:10:50;;;;;;;17.80;11.60;;;;;;;;;;108275;1270;22700;-32
2022/11/25 03:13:22;;;;;;;17.80;11.30;;;;;;;;;;108288;1269;22660;-32
2022/11/25 03:15:55;;;;;;;18.10;11.90;;;;;;;;;;108480;1265;22518;-32
2022/11/25 03:18:28;;;;;;;17.30;11.80;;;;;;;;;;108364;1262;22557;-32
2022/11/25 03:20:59;;;;;;;;;;;;;;;;;;108364;1271;22559;-32
2022/11/25 03:23:32;;;;;;;17.60;11.20;;;;;;;;;;108419;1269;22560;-32
2022/11/25 03:26:08;;;;;;;18.20;11.70;;;;;;;;;;108230;1269;22116;-32
2022/11/25 03:28:43;;;;;;;16.80;11.20;;;;;;;;;;108317;1262;22648;-32
2022/11/25 03:31:15;;;;;;;19.10;11.50;;;;;;;;;;108283;1263;24287;-32
2022/11/25 03:33:48;;;;;;;19.80;12.20;;;;;;;;;;108327;1268;22519;-32
2022/11/25 03:36:20;;;;;;;17.00;11.10;;;;;;;;;;108345;1269;23723;-32
2022/11/25 03:38:53;;;;;;;16.90;11.80;;;;;;;;;;108373;1271;24008;-32
2022/11/25 03:41:25;;;;;;;17.40;11.80;;;;;;;;;;108339;1267;22716;-32
2022/11/25 03:43:59;;;;;;;18.70;11.70;;;;;;;;;;108394;1271;23716;-32
2022/11/25 03:46:32;;;;;;;18.10;12.20;;;;;;;;;;108303;1270;22550;-32
2022/11/25 03:49:04;;;;;;;17.40;11.20;;;;;;;;;;108296;1268;25298;-32
2022/11/25 03:51:36;;;;;;;17.80;12.10;;;;;;;;;;108287;1267;22611;-32
2022/11/25 03:54:09;;;;;;;16.10;11.00;;;;;;;;;;108315;1266;23926;-32
2022/11/25 03:56:42;;;;;;;17.50;11.10;;;;;;;;;;108367;1269;22593;-32
2022/11/25 03:59:14;;;;;;;17.30;11.60;;;;;;;;;;108431;1269;22559;-32
2022/11/25 04:01:46;;;;;;;17.60;11.70;;;;;;;;;;108418;1269;22636;-32
2022/11/25 04:04:21;;;;;;;16.60;11.20;;;;;;;;;;108313;1271;23901;-32
2022/11/25 04:06:56;;;;;;;17.70;11.60;;;;;;;;;;108295;1269;22602;-32
2022/11/25 04:09:30;;;;;;;16.20;11.40;;;;;;;;;;108324;1269;22583;-32
2022/11/25 04:14:52;;;;;;;16.60;12.00;;;;;;;;;;108278;1270;22559;-32
2022/11/25 04:17:25;;;;;;;16.00;10.80;;;;;;;;;;108352;1271;22580;-32
2022/11/25 04:19:58;;;;;;;15.50;10.80;;;;;;;;;;108349;1271;22498;-32
2022/11/25 04:22:30;;;;;;;16.20;10.80;;;;;;;;;;108404;1271;22573;-32
2022/11/25 04:25:03;;;;;;;17.00;11.30;;;;;;;;;;108327;1269;22619;-32
2022/11/25 04:27:36;;;;;;;17.60;11.40;;;;;;;;;;108283;1269;22559;-32
2022/11/25 04:30:17;;;;;;;15.70;10.90;;;;;;;;;;108284;1264;22561;-32
2022/11/25 04:32:51;;;;;;;17.10;11.20;;;;;;;;;;108287;1264;22645;-32
2022/11/25 04:35:24;;;;;;;18.10;11.80;;;;;;;;;;108252;1269;22524;-32
2022/11/25 04:37:56;;;;;;;15.10;10.50;;;;;;;;;;108383;1269;22578;-32
2022/11/25 04:40:34;;;;;;;18.00;11.10;;;;;;;;;;108378;1269;21962;-32
2022/11/25 04:43:07;;;;;;;17.00;10.80;;;;;;;;;;108323;1269;22545;-32
2022/11/25 04:45:40;;;;;;;16.20;11.50;;;;;;;;;;108328;1269;22502;-32
2022/11/25 04:48:12;;;;;;;16.70;10.80;;;;;;;;;;108303;1263;22528;-32
2022/11/25 04:50:45;;;;;;;15.60;10.90;;;;;;;;;;108328;1264;22567;-32
2022/11/25 04:53:18;;;;;;;16.50;10.70;;;;;;;;;;108245;1268;22557;-32
2022/11/25 04:55:52;;;;;;;16.30;10.80;;;;;;;;;;108255;1267;22553;-32
2022/11/25 05:01:14;;;;;;;17.10;11.30;;;;;;;;;;108341;1264;22562;-32
2022/11/25 05:03:50;;;;;;;15.80;10.90;;;;;;;;;;108327;1269;22559;-32
2022/11/25 05:06:22;;;;;;;16.60;11.00;;;;;;;;;;108338;1269;22552;-32
2022/11/25 05:08:54;;;;;;;15.10;10.60;;;;;;;;;;108267;1267;23723;-32
2022/11/25 05:11:28;;;;;;;15.80;10.70;;;;;;;;;;108290;1270;22558;-32
2022/11/25 05:14:00;;;;;;;18.00;11.10;;;;;;;;;;108289;1262;22526;-32
2022/11/25 05:16:32;;;;;;;15.50;10.60;;;;;;;;;;108271;1269;25260;-32
2022/11/25 05:19:07;;;;;;;16.90;10.80;;;;;;;;;;108387;1269;22541;-32
2022/11/25 05:21:41;;;;;;;16.50;11.20;;;;;;;;;;108365;1271;22830;-32
2022/11/25 05:24:13;;;;;;;17.10;11.40;;;;;;;;;;108382;1269;22596;-32
2022/11/25 05:26:45;;;;;;;;;;;;;;;;;;108317;1268;22714;-32
2022/11/25 05:29:17;;;;;;;15.40;10.70;;;;;;;;;;108295;1269;22691;-32
2022/11/25 05:31:50;;;;;;;16.70;10.70;;;;;;;;;;108312;1269;22673;-32
2022/11/25 05:34:24;;;;;;;16.60;11.40;;;;;;;;;;108237;1270;22550;-32
2022/11/25 05:36:59;;;;;;;16.50;10.60;;;;;;;;;;108218;1264;23864;-32
2022/11/25 05:39:32;;;;;;;15.50;11.10;;;;;;;;;;108319;1271;24187;-32
2022/11/25 05:42:04;;;;;;;15.80;10.60;;;;;;;;;;108306;1269;22629;-32
2022/11/25 05:44:36;;;;;;;15.60;10.80;;;;;;;;;;108308;1265;22637;-32
2022/11/25 05:47:08;;;;;;;14.50;10.30;;;;;;;;;;108304;1269;22554;-31
2022/11/25 05:49:41;;;;;;;16.30;11.60;;;;;;;;;;108258;1267;23114;-32
2022/11/25 05:52:16;;;;;;;15.70;10.60;;;;;;;;;;108281;1269;22703;-32
2022/11/25 05:54:48;;;;;;;17.80;11.50;;;;;;;;;;108274;1270;22732;-32
2022/11/25 05:57:20;;;;;;;16.10;10.60;;;;;;;;;;108236;1264;22538;-32
2022/11/25 05:59:52;;;;;;;15.20;10.40;;;;;;;;;;108341;1268;22559;-32
2022/11/25 06:02:24;;;;;;;15.70;10.50;;;;;;;;;;108322;1269;22684;-32
2022/11/25 06:04:58;;;;;;;17.40;10.40;;;;;;;;;;108336;1269;22553;-32
2022/11/25 06:07:30;;;;;;;16.10;10.40;;;;;;;;;;108279;1271;23929;-32
2022/11/25 06:10:04;;;;;;;14.30;10.50;;;;;;;;;;108267;1269;22583;-32
2022/11/25 06:12:36;;;;;;;15.70;10.20;;;;;;;;;;108236;1270;23153;-32
2022/11/25 06:15:13;;;;;;;12.90;9.70;;;;;;;;;;108221;1269;22552;-32
2022/11/25 06:17:45;;;;;;;16.00;10.80;;;;;;;;;;108228;1269;22551;-32
2022/11/25 06:20:17;;;;;;;14.60;10.30;;;;;;;;;;108283;1268;22595;-32
2022/11/25 06:22:51;;;;;;;14.70;10.00;;;;;;;;;;108333;1269;22640;-32
2022/11/25 06:25:23;;;;;;;14.50;10.20;;;;;;;;;;108335;1269;22553;-32
2022/11/25 06:27:55;;;;;;;16.30;10.80;;;;;;;;;;108311;1271;22559;-32
2022/11/25 06:30:31;;;;;;;16.70;10.80;;;;;;;;;;108223;1268;22798;-32
2022/11/25 06:33:03;;;;;;;15.90;10.50;;;;;;;;;;108250;1269;22641;-32
2022/11/25 06:35:35;;;;;;;15.70;11.00;;;;;;;;;;108230;1269;22566;-32
2022/11/25 06:38:08;;;;;;;15.30;10.50;;;;;;;;;;108161;1269;22541;-32
2022/11/25 06:40:40;;;;;;;15.20;10.40;;;;;;;;;;108321;1269;22561;-32
2022/11/25 06:43:13;;;;;;;15.40;10.30;;;;;;;;;;108294;1268;22598;-32
2022/11/25 06:45:45;;;;;;;15.70;10.60;;;;;;;;;;108330;1271;22539;-32
2022/11/25 06:48:18;;;;;;;15.70;10.90;;;;;;;;;;107953;1269;405681;-32
2022/11/25 06:51:01;;;;;;;15.20;10.30;;;;;;;;;;108243;1270;22601;-33
2022/11/25 06:53:35;;;;;;;13.90;9.80;;;;;;;;;;108250;1269;22571;-32
2022/11/25 06:56:15;;;;;;;14.60;10.30;;;;;;;;;;108229;1267;22605;-32
2022/11/25 06:58:49;;;;;;;16.40;10.60;;;;;;;;;;108201;1264;25202;-32
2022/11/25 07:01:24;;;;;;;14.40;10.00;;;;;;;;;;108304;1269;22607;-32
2022/11/25 07:04:02;;;;;;;15.10;10.10;;;;;;;;;;108312;1271;22542;-32
2022/11/25 07:06:35;;;;;;;13.90;10.10;;;;;;;;;;108346;1271;25272;-32
2022/11/25 07:09:08;;;;;;;14.20;10.00;;;;;;;;;;108260;1263;22564;-32
2022/11/25 07:11:42;;;;;;;15.20;10.30;;;;;;;;;;108253;1264;22516;-32
2022/11/25 07:14:19;;;;;;;15.20;10.00;;;;;;;;;;108315;1264;22558;-32
2022/11/25 07:16:54;;;;;;;15.00;10.40;;;;;;;;;;108339;1269;22625;-32
2022/11/25 07:19:32;;;;;;;14.10;9.80;;;;;;;;;;108307;1270;24206;-32
2022/11/25 07:22:05;;;;;;;14.00;10.00;;;;;;;;;;108376;1268;22567;-32
2022/11/25 07:24:36;;;;;;;;;;;;;;;;;;108414;1263;24158;-32
2022/11/25 07:27:08;;;;;;;13.90;10.00;;;;;;;;;;108377;1271;25418;-32
2022/11/25 07:29:43;;;;;;;14.20;9.80;;;;;;;;;;108288;1269;22520;-32
2022/11/25 07:32:15;;;;;;;15.20;10.30;;;;;;;;;;108238;1264;22602;-32
2022/11/25 07:34:49;;;;;;;14.90;10.00;;;;;;;;;;108228;1270;22623;-32
2022/11/25 07:37:22;;;;;;;16.80;9.80;;;;;;;;;;108204;1270;22594;-32
2022/11/25 07:39:53;;;;;;;;;;;;;;;;;;108227;1270;22477;-32
2022/11/25 07:42:28;;;;;;;15.80;9.90;;;;;;;;;;108297;1271;22664;-32
2022/11/25 07:45:00;;;;;;;16.30;10.50;;;;;;;;;;108360;1271;22556;-32
2022/11/25 07:47:35;;;;;;;17.00;10.10;;;;;;;;;;108394;1262;22565;-32
2022/11/25 07:50:11;;;;;;;15.90;10.50;;;;;;;;;;108317;1270;22592;-32
2022/11/25 07:52:43;;;;;;;17.10;10.50;;;;;;;;;;108314;1270;22547;-32
2022/11/25 07:55:17;;;;;;;16.50;10.80;;;;;;;;;;108245;1270;22954;-32
2022/11/25 07:57:49;;;;;;;15.80;11.00;;;;;;;;;;108297;1263;22687;-32
2022/11/25 08:00:24;;;;;;;16.40;10.80;;;;;;;;;;108293;1270;22632;-32
2022/11/25 08:02:56;;;;;;;18.10;10.80;;;;;;;;;;108397;1269;24553;-32
2022/11/25 08:05:29;;;;;;;15.90;10.40;;;;;;;;;;108371;1271;22589;-32
2022/11/25 08:10:54;;;;;;;17.00;10.80;;;;;;;;;;108424;1261;22526;-28
2022/11/25 08:13:26;;;;;;;14.90;10.10;;;;;;;;;;108436;1267;22645;-28
2022/11/25 08:16:01;;;;;;;20.40;13.50;;;;;;;;;;108462;1265;25232;-27
2022/11/25 08:18:34;;;;;;;19.80;13.70;;;;;;;;;;108461;1261;22549;-28
2022/11/25 08:21:10;;;;;;;22.60;14.20;;;;;;;;;;108420;1267;22517;-27
2022/11/25 08:23:47;;;;;;;20.60;13.60;;;;;;;;;;108483;1267;24930;-27
2022/11/25 08:26:22;;;;;;;18.10;11.60;;;;;;;;;;108455;1267;22549;-28
2022/11/25 08:28:56;;;;;;;17.50;11.50;;;;;;;;;;108345;1267;22547;-28
2022/11/25 08:31:33;;;;;;;16.80;11.00;;;;;;;;;;108447;1268;22521;-28
2022/11/25 08:34:07;;;;;;;18.20;11.20;;;;;;;;;;108499;1266;22570;-28
2022/11/25 08:36:40;;;;;;;16.90;10.90;;;;;;;;;;108520;1267;22614;-28
2022/11/25 08:39:12;;;;;;;17.20;11.10;;;;;;;;;;108479;1266;22562;-28
2022/11/25 08:41:50;;;;;;;15.80;10.60;;;;;;;;;;108456;1267;22526;-28
2022/11/25 08:44:27;;;;;;;16.40;10.60;;;;;;;;;;108488;1267;22619;-28
2022/11/25 08:47:01;;;;;;;16.90;11.20;;;;;;;;;;108473;1261;22617;-28
2022/11/25 08:49:34;;;;;;;15.70;11.10;;;;;;;;;;108472;1267;22508;-29
2022/11/25 08:52:09;;;;;;;15.00;10.40;;;;;;;;;;108432;1267;21861;-29
2022/11/25 08:54:41;;;;;;;16.40;10.30;;;;;;;;;;108410;1262;22599;-29
2022/11/25 08:57:14;;;;;;;14.90;10.20;;;;;;;;;;108462;1268;23087;-29
2022/11/25 08:59:46;;;;;;;16.50;10.60;;;;;;;;;;108470;1268;22530;-29
2022/11/25 09:02:20;;;;;;;16.50;10.80;;;;;;;;;;108414;1267;22625;-29
2022/11/25 09:04:52;;;;;;;15.60;11.30;;;;;;;;;;108450;1261;22587;-29
2022/11/25 09:07:25;;;;;;;17.20;11.20;;;;;;;;;;108488;1264;22561;-29
2022/11/25 09:09:57;;;;;;;15.60;11.30;;;;;;;;;;108478;1267;22568;-29
2022/11/25 09:12:30;;;;;;;14.80;10.60;;;;;;;;;;108478;1267;22507;-29
2022/11/25 09:15:07;;;;;;;16.10;11.40;;;;;;;;;;108495;1262;22550;-29
2022/11/25 09:17:40;;;;;;;17.10;10.70;;;;;;;;;;108560;1268;22590;-29
2022/11/25 09:20:14;;;;;;;17.30;10.70;;;;;;;;;;108503;1263;22553;-29
2022/11/25 09:22:46;;;;;;;17.20;10.80;;;;;;;;;;108453;1268;25267;-29
2022/11/25 09:25:19;;;;;;;16.70;10.80;;;;;;;;;;108492;1267;23853;-29
2022/11/25 09:27:54;;;;;;;16.30;11.10;;;;;;;;;;108476;1267;25291;-29
2022/11/25 09:30:28;;;;;;;15.10;11.00;;;;;;;;;;108498;1263;22547;-29
2022/11/25 09:33:01;;;;;;;17.30;11.60;;;;;;;;;;108431;1267;23938;-29
2022/11/25 09:35:33;;;;;;;17.10;12.20;;;;;;;;;;108533;1268;22896;-29
2022/11/25 09:38:05;;;;;;;15.60;11.00;;;;;;;;;;108510;1266;22637;-29
2022/11/25 09:40:45;;;;;;;17.70;12.00;;;;;;;;;;108492;1267;25241;-29
2022/11/25 09:46:42;;;;;;;16.90;11.90;;;;;;;;;;108513;1267;22669;-29
2022/11/25 09:49:30;;;;;;;16.80;11.80;;;;;;;;;;108488;1261;25406;-29
2022/11/25 09:52:19;;;;;;;19.50;13.00;;;;;;;;;;108474;1265;22633;-29
2022/11/25 09:55:03;;;;;;;18.10;11.70;;;;;;;;;;108549;1268;22642;-29
2022/11/25 09:57:43;;;;;;;;;;;;;;;;;;108493;1266;25848;-29
2022/11/25 10:00:23;;;;;;;17.30;11.80;;;;;;;;;;108525;1265;25399;-29
2022/11/25 10:03:04;;;;;;;18.20;12.00;;;;;;;;;;108478;1266;22533;-29
2022/11/25 10:05:44;;;;;;;16.80;12.10;;;;;;;;;;108280;1272;22513;-29
2022/11/25 10:08:22;;;;;;;16.60;11.60;;;;;;;;;;108477;1265;23199;-29
2022/11/25 10:11:01;;;;;;;16.50;12.50;;;;;;;;;;108431;1267;22622;-29
2022/11/25 10:13:41;;;;;;;18.00;12.40;;;;;;;;;;108481;1266;25387;-29
2022/11/25 10:16:47;;;;;;;16.90;11.20;;;;;;;;;;108491;1268;23905;-29
2022/11/25 10:19:38;;;;;;;19.50;12.50;;;;;;;;;;108490;1268;22518;-29
2022/11/25 10:22:25;;;;;;;17.60;12.60;;;;;;;;;;108483;1268;22517;-29
2022/11/25 10:25:01;;;;;;;16.40;12.10;;;;;;;;;;108569;1264;22550;-29
2022/11/25 10:27:44;;;;;;;25.40;16.80;;;;;;;;;;108445;1259;22571;-30
2022/11/25 10:30:25;;;;;;;25.00;17.20;;;;;;;;;;108438;1267;22588;-29
2022/11/25 10:33:13;;;;;;;22.00;14.70;;;;;;;;;;108497;1268;22589;-30
2022/11/25 10:35:51;;;;;;;23.10;14.40;;;;;;;;;;108423;1264;22535;-29
2022/11/25 10:38:30;;;;;;;16.90;12.10;;;;;;;;;;108453;1267;22568;-29
2022/11/25 10:41:06;;;;;;;18.30;11.10;;;;;;;;;;108447;1267;22625;-29
2022/11/25 10:43:40;;;;;;;15.90;10.50;;;;;;;;;;108414;1267;22567;-29
2022/11/25 10:46:30;;;;;;;14.80;10.40;;;;;;;;;;108533;1266;25268;-30
2022/11/25 10:49:19;;;;;;;15.20;10.50;;;;;;;;;;108537;1268;22578;-29
2022/11/25 10:51:56;;;;;;;14.60;10.20;;;;;;;;;;108529;1267;22550;-30
2022/11/25 10:54:29;;;;;;;14.90;9.70;;;;;;;;;;108493;1267;22641;-29
2022/11/25 10:57:15;;;;;;;13.40;9.20;;;;;;;;;;108548;1268;22551;-29
2022/11/25 10:59:58;;;;;;;15.00;9.20;;;;;;;;;;108466;1267;22549;-28
2022/11/25 11:02:39;;;;;;;13.10;8.30;;;;;;;;;;108494;1266;22717;-29
2022/11/25 11:05:28;;;;;;;12.50;7.90;;;;;;;;;;108437;1268;22545;-29
2022/11/25 11:08:24;;;;;;;11.10;8.20;;;;;;;;;;108484;1267;22541;-29
2022/11/25 11:11:23;;;;;;;11.40;7.80;;;;;;;;;;108286;1267;22734;-29
2022/11/25 11:14:13;;;;;;;11.30;7.40;;;;;;;;;;108410;1261;22619;-29
2022/11/25 11:16:55;;;;;;;11.10;7.60;;;;;;;;;;108550;1266;22565;-30
2022/11/25 11:19:30;;;;;;;11.70;7.30;;;;;;;;;;108510;1267;24199;-29
2022/11/25 11:22:23;;;;;;;13.30;8.20;;;;;;;;;;108487;1266;25415;-29
2022/11/25 11:25:13;;;;;;;13.30;8.30;;;;;;;;;;108452;1270;23659;-29
2022/11/25 11:27:45;;;;;;;11.20;7.80;;;;;;;;;;108430;1267;22555;-29
2022/11/25 11:30:23;;;;;;;12.00;8.40;;;;;;;;;;108418;1267;22608;-30
2022/11/25 11:33:25;;;;;;;11.70;7.90;;;;;;;;;;108404;1266;22656;-30
2022/11/25 11:36:06;;;;;;;11.20;7.80;;;;;;;;;;108412;1267;22598;-29
2022/11/25 11:38:51;;;;;;;11.60;7.60;;;;;;;;;;108377;1268;22641;-30
2022/11/25 11:41:38;;;;;;;10.90;7.30;;;;;;;;;;108398;1266;22483;-29
2022/11/25 11:44:25;;;;;;;13.10;8.20;;;;;;;;;;108439;1268;22506;-30
2022/11/25 11:47:17;;;;;;;12.40;8.80;;;;;;;;;;108418;1267;22530;-30
2022/11/25 11:50:17;;;;;;;12.30;7.90;;;;;;;;;;108284;1270;22786;-30
2022/11/25 11:53:01;;;;;;;12.30;7.60;;;;;;;;;;108446;1265;22573;-30
2022/11/25 11:55:55;;;;;;;13.50;9.10;;;;;;;;;;108292;1267;22547;-30
2022/11/25 11:58:41;;;;;;;;;;;;;;;;;;108418;1259;22548;-30
2022/11/25 12:01:35;;;;;;;13.70;9.30;;;;;;;;;;108452;1260;22549;-30
2022/11/25 12:04:21;;;;;;;13.10;9.30;;;;;;;;;;108441;1266;22681;-29
2022/11/25 12:07:06;;;;;;;13.50;9.30;;;;;;;;;;108300;1267;22549;-30
2022/11/25 12:09:46;;;;;;;13.30;9.20;;;;;;;;;;108269;1268;22560;-30
2022/11/25 12:12:20;;;;;;;11.70;8.70;;;;;;;;;;108405;1267;22503;-30
2022/11/25 12:14:57;;;;;;;13.40;9.00;;;;;;;;;;108408;1268;22551;-30
2022/11/25 12:17:36;;;;;;;12.00;8.70;;;;;;;;;;108341;1268;23915;-30
2022/11/25 12:20:17;;;;;;;15.50;9.10;;;;;;;;;;108375;1268;22557;-30
2022/11/25 12:22:58;;;;;;;13.00;9.50;;;;;;;;;;108384;1268;22558;-30
2022/11/25 12:25:37;;;;;;;12.50;9.30;;;;;;;;;;108442;1269;22709;-31
2022/11/25 12:28:20;;;;;;;12.10;9.20;;;;;;;;;;108462;1267;22602;-29
2022/11/25 12:31:06;;;;;;;13.00;9.40;;;;;;;;;;108319;1270;22530;-30
2022/11/25 12:33:56;;;;;;;13.60;9.50;;;;;;;;;;108277;1271;22542;-30
2022/11/25 12:36:37;;;;;;;12.90;9.50;;;;;;;;;;108417;1261;24044;-30
2022/11/25 12:39:24;;;;;;;12.70;9.10;;;;;;;;;;108441;1262;24203;-30
2022/11/25 12:42:01;;;;;;;12.00;8.70;;;;;;;;;;108435;1262;22578;-30
2022/11/25 12:44:40;;;;;;;12.80;9.90;;;;;;;;;;108435;1268;22605;-31
2022/11/25 12:47:13;;;;;;;11.70;8.60;;;;;;;;;;108391;1270;22556;-30
2022/11/25 12:49:51;;;;;;;12.60;8.90;;;;;;;;;;108403;1267;22533;-30
2022/11/25 12:52:47;;;;;;;13.50;9.00;;;;;;;;;;108413;1264;22543;-30
2022/11/25 12:55:22;;;;;;;13.20;9.70;;;;;;;;;;108281;1267;22549;-29
2022/11/25 12:58:39;;;;;;;13.10;9.40;;;;;;;;;;108421;1268;22543;-29
2022/11/25 13:01:42;;;;;;;12.20;8.60;;;;;;;;;;108448;1263;22556;-29
2022/11/25 13:04:55;;;;;;;12.30;9.00;;;;;;;;;;108435;1266;22580;-29
2022/11/25 13:07:36;;;;;;;11.10;8.40;;;;;;;;;;108361;1267;22553;-29
2022/11/25 13:10:36;;;;;;;11.90;8.40;;;;;;;;;;108349;1270;23067;-29
2022/11/25 13:13:26;;;;;;;11.40;8.50;;;;;;;;;;108380;1274;22553;-29
2022/11/25 13:16:01;;;;;;;11.60;8.50;;;;;;;;;;108296;1269;22562;-29
2022/11/25 13:18:37;;;;;;;12.70;9.00;;;;;;;;;;108308;1268;22502;-29
2022/11/25 13:21:14;;;;;;;13.30;10.00;;;;;;;;;;108370;1269;22657;-29
2022/11/25 13:23:54;;;;;;;12.40;9.60;;;;;;;;;;108433;1267;22545;-29
2022/11/25 13:26:51;;;;;;;13.10;9.30;;;;;;;;;;108382;1268;22984;-29
2022/11/25 13:30:01;;;;;;;13.20;10.10;;;;;;;;;;108320;1263;22590;-28
2022/11/25 13:32:49;;;;;;;14.10;10.50;;;;;;;;;;108334;1267;22548;-27
2022/11/25 13:35:42;;;;;;;13.00;9.00;;;;;;;;;;108456;1267;22531;-27
2022/11/25 13:39:02;;;;;;;11.50;8.40;;;;;;;;;;108391;1269;22571;-28
2022/11/25 13:41:44;;;;;;;11.70;8.80;;;;;;;;;;108262;1267;22611;-28
2022/11/25 13:44:24;;;;;;;11.30;8.40;;;;;;;;;;108436;1267;22606;-28
2022/11/25 13:47:00;;;;;;;11.00;8.40;;;;;;;;;;108432;1267;22560;-27
2022/11/25 13:49:53;;;;;;;12.20;8.70;;;;;;;;;;108464;1269;22560;-30
2022/11/25 13:52:40;;;;;;;11.10;8.10;;;;;;;;;;108511;1266;22615;-30
2022/11/25 13:55:33;;;;;;;11.90;8.40;;;;;;;;;;108511;1266;22598;-30
2022/11/25 13:58:21;;;;;;;11.90;8.80;;;;;;;;;;108475;1266;22526;-30
2022/11/25 14:01:23;;;;;;;11.60;8.70;;;;;;;;;;108432;1264;23940;-30
2022/11/25 14:04:01;;;;;;;12.10;8.50;;;;;;;;;;108337;1269;22769;-30
2022/11/25 14:07:10;;;;;;;11.90;8.40;;;;;;;;;;108438;1272;22549;-30
2022/11/25 14:10:07;;;;;;;11.90;8.70;;;;;;;;;;108263;1267;22556;-28
2022/11/25 14:13:00;;;;;;;11.90;8.40;;;;;;;;;;108576;1266;22605;-28
2022/11/25 14:15:49;;;;;;;11.80;8.80;;;;;;;;;;108504;1269;22611;-27
2022/11/25 14:19:14;;;;;;;11.10;8.70;;;;;;;;;;108512;1265;23987;-28
2022/11/25 14:22:02;;;;;;;12.10;8.80;;;;;;;;;;108285;1272;22566;-27
2022/11/25 14:24:41;;;;;;;11.60;8.50;;;;;;;;;;108422;1268;25204;-27
2022/11/25 14:27:22;;;;;;;13.00;9.00;;;;;;;;;;108383;1267;22564;-27
2022/11/25 14:30:00;;;;;;;12.50;9.10;;;;;;;;;;108396;1267;22639;-27
2022/11/25 14:32:42;;;;;;;12.90;8.90;;;;;;;;;;108509;1269;24162;-27
2022/11/25 14:35:22;;;;;;;12.70;9.40;;;;;;;;;;108544;1270;23134;-28
2022/11/25 14:38:03;;;;;;;12.80;9.30;;;;;;;;;;108545;1267;22735;-27
2022/11/25 14:40:44;;;;;;;13.10;9.70;;;;;;;;;;108366;1268;23782;-27
2022/11/25 14:43:21;;;;;;;12.60;9.50;;;;;;;;;;108403;1268;22600;-27
2022/11/25 14:46:19;;;;;;;13.70;9.70;;;;;;;;;;108469;1273;22532;-30
2022/11/25 14:48:59;;;;;;;14.60;10.00;;;;;;;;;;108076;1268;411124;-30
2022/11/25 14:51:38;;;;;;;12.50;9.40;;;;;;;;;;108554;1269;23737;-30
2022/11/25 14:54:14;;;;;;;13.40;10.00;;;;;;;;;;108537;1269;22644;-30
2022/11/25 14:56:48;;;;;;;13.60;10.00;;;;;;;;;;108525;1266;25447;-30
2022/11/25 14:59:20;;;;;;;12.80;9.50;;;;;;;;;;108475;1269;22715;-30
2022/11/25 15:01:56;;;;;;;14.00;10.90;;;;;;;;;;108434;1265;22515;-30
2022/11/25 15:04:33;;;;;;;15.60;11.90;;;;;;;;;;108438;1267;22882;-30
2022/11/25 15:07:24;;;;;;;14.20;11.10;;;;;;;;;;108455;1268;25411;-28
2022/11/25 15:09:56;;;;;;;14.10;10.90;;;;;;;;;;108353;1270;25405;-29
2022/11/25 15:12:35;;;;;;;15.10;11.00;;;;;;;;;;108537;1265;22598;-28
2022/11/25 15:15:17;;;;;;;13.70;11.00;;;;;;;;;;108537;1267;24197;-28
2022/11/25 15:17:53;;;;;;;13.90;11.70;;;;;;;;;;108432;1268;22704;-28
2022/11/25 15:20:32;;;;;;;13.10;11.00;;;;;;;;;;108396;1268;22675;-28
2022/11/25 15:23:09;;;;;;;14.40;11.00;;;;;;;;;;108411;1267;22568;-28
2022/11/25 15:25:56;;;;;;;13.60;10.50;;;;;;;;;;108352;1267;22790;-28
2022/11/25 15:28:34;;;;;;;13.90;11.00;;;;;;;;;;108407;1268;23907;-28